Time;durP1;ratioP1;P1;durP2;ratioP2;P2;SDS_P1;SDS_P2;PMS_P1;PMS_P2;Temp;Humidity;BMP_temperature;BMP_pressure;BME280_temperature;BME280_humidity;BME280_pressure;Samples;Min_cycle;Max_cycle;Signal;HPM_P1;HPM_P2
2020/12/11 00:01:00;;;;;;;92.22;27.80;;;;;;;6.85;56.03;100241.63;5001086;28;97258;-72
2020/12/11 00:03:28;;;;;;;78.80;26.88;;;;;;;6.87;55.34;100244.31;5002004;28;96866;-73
2020/12/11 00:05:55;;;;;;;92.65;26.80;;;;;;;6.86;56.00;100232.09;5004022;28;101144;-75
2020/12/11 00:08:24;;;;;;;100.95;29.42;;;;;;;6.87;55.83;100236.50;4996262;28;99137;-73
2020/12/11 00:10:51;;;;;;;88.40;28.48;;;;;;;6.84;55.70;100234.59;5001838;28;97490;-72
2020/12/11 00:13:19;;;;;;;96.82;30.20;;;;;;;6.79;56.15;100228.19;5004572;28;97828;-72
2020/12/11 00:15:46;;;;;;;99.10;30.35;;;;;;;6.79;55.94;100235.13;5009424;28;97803;-74
2020/12/11 00:18:14;;;;;;;88.00;27.27;;;;;;;6.79;55.84;100233.41;5002969;28;98359;-74
2020/12/11 00:20:41;;;;;;;98.45;28.30;;;;;;;6.82;55.69;100228.41;5007664;28;97324;-73
2020/12/11 00:23:08;;;;;;;95.50;30.20;;;;;;;6.81;55.52;100230.91;5004281;28;98022;-73
2020/12/11 00:25:36;;;;;;;107.50;32.20;;;;;;;6.82;55.98;100233.63;5003542;28;98253;-74
2020/12/11 00:28:04;;;;;;;95.85;27.98;;;;;;;6.83;56.11;100229.28;5000920;28;99326;-74
2020/12/11 00:30:31;;;;;;;89.63;27.23;;;;;;;6.84;55.81;100225.88;5005431;28;97314;-75
2020/12/11 00:32:58;;;;;;;100.65;29.13;;;;;;;6.83;55.48;100229.28;5003685;28;96909;-73
2020/12/11 00:35:26;;;;;;;95.40;29.77;;;;;;;6.82;55.89;100231.00;4995744;28;99097;-74
2020/12/11 00:37:56;;;;;;;105.07;29.58;;;;;;;6.84;55.58;100225.88;5002049;28;99023;-74
2020/12/11 00:40:24;;;;;;;90.63;27.45;;;;;;;6.81;55.21;100221.38;5015345;27;96816;-73
2020/12/11 00:43:09;;;;;;;95.10;27.20;;;;;;;6.79;56.25;100224.69;5006993;28;96534;-73
2020/12/11 00:45:36;;;;;;;90.45;28.58;;;;;;;6.80;56.09;100218.66;5005958;28;97873;-73
2020/12/11 00:48:04;;;;;;;94.00;29.05;;;;;;;6.79;55.33;100222.97;5000528;28;99171;-73
2020/12/11 00:50:31;;;;;;;97.75;28.85;;;;;;;6.82;56.30;100224.88;5009915;28;96951;-74
2020/12/11 00:52:59;;;;;;;111.00;28.75;;;;;;;6.83;55.44;100224.97;5008893;28;96911;-74
2020/12/11 00:55:44;;;;;;;98.28;28.23;;;;;;;6.83;55.50;100229.28;5001759;28;98322;-73
2020/12/11 00:58:14;;;;;;;90.63;28.35;;;;;;;6.84;55.54;100221.53;5005863;28;98065;-74
2020/12/11 01:00:41;;;;;;;92.10;28.00;;;;;;;6.84;55.78;100220.66;5005569;28;97410;-74
2020/12/11 01:03:09;;;;;;;96.60;28.05;;;;;;;6.86;55.47;100219.03;5006706;28;96789;-74
2020/12/11 01:05:36;;;;;;;100.05;29.45;;;;;;;6.86;55.97;100224.25;5003321;28;99438;-74
2020/12/11 01:08:04;;;;;;;92.00;29.08;;;;;;;6.87;55.59;100221.72;5004726;28;97817;-74
2020/12/11 01:10:32;;;;;;;86.13;26.65;;;;;;;6.88;55.51;100223.53;5004991;28;97407;-73
2020/12/11 01:12:59;;;;;;;88.85;26.88;;;;;;;6.90;55.99;100218.38;5006829;28;96766;-73
2020/12/11 01:15:28;;;;;;;94.15;27.23;;;;;;;6.93;56.11;100215.97;5000990;28;99104;-73
2020/12/11 01:17:56;;;;;;;90.47;28.10;;;;;;;6.94;55.93;100223.88;5012921;28;99241;-73
2020/12/11 01:20:23;;;;;;;90.47;29.67;;;;;;;6.96;55.98;100216.13;5011012;28;96873;-72
2020/12/11 01:23:09;;;;;;;88.97;26.48;;;;;;;6.96;55.39;100210.91;5001981;28;97216;-74
2020/12/11 01:25:36;;;;;;;87.55;26.20;;;;;;;6.96;55.55;100210.91;5012781;28;98244;-74
2020/12/11 01:28:04;;;;;;;97.90;27.95;;;;;;;6.94;55.29;100202.09;5008436;28;98913;-74
2020/12/11 01:30:33;;;;;;;102.70;30.08;;;;;;;6.92;56.13;100202.00;5008642;28;96930;-74
2020/12/11 01:33:00;;;;;;;106.47;29.52;;;;;;;6.92;55.57;100206.31;5004678;28;96918;-74
2020/12/11 01:35:28;;;;;;;99.55;29.13;;;;;;;6.93;55.49;100195.09;5007458;28;98167;-74
2020/12/11 01:37:55;;;;;;;101.07;29.70;;;;;;;6.92;55.32;100198.50;5002430;28;97884;-73
2020/12/11 01:40:23;;;;;;;100.72;28.98;;;;;;;6.93;55.64;100192.47;5006813;28;96782;-74
2020/12/11 01:42:50;;;;;;;90.07;28.88;;;;;;;6.94;56.33;100187.34;5007911;28;96786;-73
2020/12/11 01:45:17;;;;;;;101.65;29.92;;;;;;;6.94;55.80;100187.34;5009434;28;98019;-74
2020/12/11 01:47:46;;;;;;;89.82;27.98;;;;;;;6.96;56.10;100183.09;5010312;28;97785;-71
2020/12/11 01:50:19;;;;;;;98.50;27.70;;;;;;;6.96;55.41;100179.59;5008455;28;96739;-73
2020/12/11 01:52:47;;;;;;;92.13;29.50;;;;;;;6.95;56.13;100176.06;5005368;28;96807;-74
2020/12/11 01:55:15;;;;;;;102.63;29.75;;;;;;;6.95;55.96;100167.38;5012335;28;98177;-74
2020/12/11 01:57:50;;;;;;;95.43;28.13;;;;;;;6.93;55.99;100159.41;5003922;28;97726;-74
2020/12/11 02:00:20;;;;;;;86.43;27.15;;;;;;;6.93;56.11;100148.09;5010091;28;97797;-74
2020/12/11 02:02:49;;;;;;;98.05;29.33;;;;;;;6.93;56.10;100143.75;5009996;28;96755;-74
2020/12/11 02:05:16;;;;;;;94.45;28.02;;;;;;;6.92;56.07;100149.78;5012745;28;98272;-74
2020/12/11 02:07:43;;;;;;;94.70;29.30;;;;;;;6.95;56.00;100146.47;5009790;28;98088;-74
2020/12/11 02:10:11;;;;;;;101.63;29.08;;;;;;;6.94;55.56;100135.13;5008228;28;96781;-74
2020/12/11 02:12:38;;;;;;;97.45;29.58;;;;;;;6.94;55.47;100126.38;5005931;28;97182;-73
2020/12/11 02:15:24;;;;;;;80.20;26.67;;;;;;;6.92;55.87;100128.91;5012225;28;98307;-73
2020/12/11 02:17:55;;;;;;;129.77;41.77;;;;;;;7.16;55.59;100126.78;5015175;28;99311;-74
2020/12/11 02:20:23;;;;;;;132.27;42.72;;;;;;;7.35;55.32;100129.63;5004651;28;97179;-73
2020/12/11 02:22:51;;;;;;;94.70;33.97;;;;;;;7.19;55.83;100129.53;5012492;28;97086;-74
2020/12/11 02:25:18;;;;;;;86.90;29.00;;;;;;;7.16;55.86;100126.78;5011994;28;99220;-73
2020/12/11 02:27:47;;;;;;;105.28;29.95;;;;;;;7.12;56.15;100124.81;5009510;28;98183;-73
2020/12/11 02:30:15;;;;;;;89.45;29.58;;;;;;;7.07;55.61;100119.34;5011827;28;98039;-73
2020/12/11 02:32:42;;;;;;;87.97;27.35;;;;;;;7.05;55.65;100120.06;5000101;28;97130;-74
2020/12/11 02:35:10;;;;;;;85.22;29.33;;;;;;;7.05;56.04;100107.00;5007445;28;97864;-74
2020/12/11 02:37:37;;;;;;;85.50;25.60;;;;;;;7.04;55.84;100113.06;5008792;28;99497;-73
2020/12/11 02:40:07;;;;;;;85.95;29.02;;;;;;;7.01;55.70;100118.06;5007376;28;97344;-74
2020/12/11 02:42:35;;;;;;;81.75;27.98;;;;;;;7.00;55.89;100108.47;5011559;28;97187;-73
2020/12/11 02:45:04;;;;;;;86.78;28.27;;;;;;;6.99;55.49;100104.03;5008184;28;96917;-73
2020/12/11 02:47:32;;;;;;;82.55;27.38;;;;;;;6.96;55.59;100096.94;5002749;28;97803;-73
2020/12/11 02:50:01;;;;;;;79.90;25.55;;;;;;;6.96;56.03;100096.03;5015724;28;97139;-73
2020/12/11 02:52:28;;;;;;;92.30;28.40;;;;;;;6.94;55.83;100090.75;5009726;28;97314;-73
2020/12/11 02:54:58;;;;;;;74.15;24.77;;;;;;;6.92;55.72;100086.25;5018094;27;99049;-73
2020/12/11 02:57:26;;;;;;;77.65;25.67;;;;;;;6.90;55.68;100080.94;5010655;28;97925;-73
2020/12/11 02:59:53;;;;;;;82.30;26.33;;;;;;;6.89;56.21;100079.16;5016052;28;96912;-74
2020/12/11 03:02:21;;;;;;;79.35;24.52;;;;;;;6.92;55.91;100083.63;5001343;28;97183;-74
2020/12/11 03:04:49;;;;;;;82.65;25.70;;;;;;;6.90;55.94;100074.81;5002990;28;97879;-73
2020/12/11 03:07:17;;;;;;;79.88;26.55;;;;;;;6.90;56.14;100072.19;5007281;28;97940;-73
2020/12/11 03:09:44;;;;;;;81.22;25.58;;;;;;;6.89;56.03;100083.47;5011684;28;97041;-73
2020/12/11 03:12:12;;;;;;;79.07;25.73;;;;;;;6.88;56.26;100069.50;5007031;28;97174;-74
2020/12/11 03:14:58;;;;;;;76.75;25.25;;;;;;;6.88;56.13;100068.59;5008312;28;98194;-73
2020/12/11 03:17:25;;;;;;;75.97;25.00;;;;;;;6.87;56.29;100072.03;5011339;28;98042;-73
2020/12/11 03:19:53;;;;;;;75.00;24.95;;;;;;;6.84;55.59;100071.88;5007109;28;96797;-73
2020/12/11 03:22:21;;;;;;;79.57;25.58;;;;;;;6.82;55.98;100073.50;5016762;28;97365;-73
2020/12/11 03:25:25;;;;;;;75.03;25.20;;;;;;;6.77;55.76;100069.75;5002937;28;99148;-74
2020/12/11 03:27:53;;;;;;;75.88;25.50;;;;;;;6.78;55.38;100063.69;5012760;28;99064;-73
2020/12/11 03:30:22;;;;;;;80.47;24.98;;;;;;;6.78;55.47;100068.91;5004995;28;97311;-72
2020/12/11 03:32:49;;;;;;;69.82;26.00;;;;;;;6.76;56.00;100066.22;5016041;28;96908;-73
2020/12/11 03:35:17;;;;;;;70.88;24.52;;;;;;;6.72;55.93;100055.50;5010959;28;99062;-72
2020/12/11 03:37:45;;;;;;;70.55;23.23;;;;;;;6.70;55.95;100054.53;5007020;28;97557;-73
2020/12/11 03:40:46;;;;;;;71.35;23.80;;;;;;;6.69;55.77;100047.53;5007857;28;97301;-72
2020/12/11 03:43:13;;;;;;;78.38;25.45;;;;;;;6.68;56.27;100048.34;5000746;28;97178;-73
2020/12/11 03:45:41;;;;;;;71.35;24.15;;;;;;;6.65;56.48;100036.03;5008889;28;98112;-73
2020/12/11 03:48:09;;;;;;;71.10;22.35;;;;;;;6.62;56.02;100037.56;5004028;28;99044;-73
2020/12/11 03:50:36;;;;;;;69.43;23.88;;;;;;;6.60;56.43;100036.56;5004443;28;96881;-73
2020/12/11 03:53:04;;;;;;;74.70;23.67;;;;;;;6.55;55.87;100031.06;5007360;28;97041;-73
2020/12/11 03:55:33;;;;;;;71.47;23.88;;;;;;;6.53;55.91;100031.81;5011999;28;97838;-73
2020/12/11 03:58:00;;;;;;;73.30;25.15;;;;;;;6.52;56.26;100027.41;5007834;28;98544;-73
2020/12/11 04:00:28;;;;;;;80.13;25.65;;;;;;;6.52;56.67;100033.53;5012838;28;96620;-73
2020/12/11 04:02:56;;;;;;;75.35;26.08;;;;;;;6.51;56.08;100033.44;5005979;28;97002;-73
2020/12/11 04:05:25;;;;;;;72.55;26.65;;;;;;;6.55;56.47;100030.19;5010572;28;97838;-73
2020/12/11 04:07:52;;;;;;;72.28;27.83;;;;;;;6.58;55.99;100030.38;5006184;28;97821;-73
2020/12/11 04:10:19;;;;;;;71.43;24.55;;;;;;;6.61;56.32;100012.25;5010115;28;98521;-73
2020/12/11 04:12:47;;;;;;;70.18;25.58;;;;;;;6.65;56.05;100022.06;5014737;28;97728;-73
2020/12/11 04:15:14;;;;;;;65.63;21.95;;;;;;;6.69;55.93;100016.22;5006091;28;97084;-73
2020/12/11 04:17:42;;;;;;;72.75;25.55;;;;;;;6.73;55.84;100019.06;5007981;28;99242;-74
2020/12/11 04:20:10;;;;;;;67.47;23.67;;;;;;;6.77;56.08;100020.16;5009575;28;96714;-74
2020/12/11 04:22:37;;;;;;;78.43;27.42;;;;;;;6.81;56.05;100016.88;5009057;28;97443;-74
2020/12/11 04:25:05;;;;;;;79.75;25.23;;;;;;;6.83;55.80;100015.25;5009659;28;97918;-74
2020/12/11 04:27:32;;;;;;;76.47;25.00;;;;;;;6.85;55.38;100011.03;5015286;28;97879;-74
2020/12/11 04:30:00;;;;;;;76.80;24.90;;;;;;;6.83;55.92;100007.41;5007731;28;97698;-75
2020/12/11 04:32:28;;;;;;;75.78;22.80;;;;;;;6.83;55.83;100003.09;5004929;28;96739;-73
2020/12/11 04:34:55;;;;;;;83.35;25.08;;;;;;;6.83;55.98;99999.59;4993534;28;97822;-72
2020/12/11 04:37:24;;;;;;;78.07;24.05;;;;;;;6.79;56.12;99988.09;5011767;28;99000;-73
2020/12/11 04:39:52;;;;;;;86.18;27.40;;;;;;;6.78;56.37;99995.84;5005899;28;96826;-73
2020/12/11 04:42:19;;;;;;;78.95;24.40;;;;;;;6.78;55.57;99995.84;5014168;28;96974;-73
2020/12/11 04:44:47;;;;;;;77.22;24.58;;;;;;;6.77;56.28;99989.72;5011360;28;98355;-73
2020/12/11 04:47:14;;;;;;;77.57;24.02;;;;;;;6.77;55.53;99988.84;5006164;28;98268;-73
2020/12/11 04:49:43;;;;;;;87.47;26.98;;;;;;;6.80;55.99;99991.59;5000535;28;96663;-73
2020/12/11 04:52:13;;;;;;;81.88;26.45;;;;;;;6.78;55.65;99990.63;5009067;28;96860;-73
2020/12/11 04:54:43;;;;;;;74.15;25.77;;;;;;;6.80;55.85;99989.00;5011208;28;96843;-72
2020/12/11 04:57:10;;;;;;;77.65;26.13;;;;;;;6.80;56.02;99995.13;5009708;28;100153;-73
2020/12/11 04:59:38;;;;;;;78.47;26.55;;;;;;;6.80;56.14;99986.38;5005563;28;97346;-72
2020/12/11 05:02:12;;;;;;;76.50;25.83;;;;;;;6.78;55.62;99986.31;5001463;28;98153;-72
2020/12/11 05:04:39;;;;;;;76.95;23.85;;;;;;;6.77;55.45;99978.41;4999791;28;99283;-73
2020/12/11 05:07:07;;;;;;;74.57;22.58;;;;;;;6.76;56.18;99979.19;5001213;28;98159;-72
2020/12/11 05:09:35;;;;;;;74.43;25.20;;;;;;;6.76;55.59;99977.50;5003787;28;96820;-72
2020/12/11 05:12:12;;;;;;;77.55;24.73;;;;;;;6.73;55.98;99982.53;5003824;28;97240;-72
2020/12/11 05:14:40;;;;;;;77.35;24.77;;;;;;;6.74;55.72;99988.66;5003542;28;99546;-72
2020/12/11 05:17:08;;;;;;;72.40;24.90;;;;;;;6.70;55.73;99984.06;5005138;28;97974;-72
2020/12/11 05:19:49;;;;;;;73.22;24.27;;;;;;;6.71;55.61;99991.09;5010626;28;97245;-72
2020/12/11 05:22:17;;;;;;;71.07;24.17;;;;;;;6.75;56.15;99985.25;5002654;28;96773;-72
2020/12/11 05:24:46;;;;;;;76.13;25.23;;;;;;;6.76;56.16;99981.81;5005927;28;97382;-72
2020/12/11 05:27:27;;;;;;;72.63;23.85;;;;;;;6.74;56.12;99975.59;5008013;28;98912;-72
2020/12/11 05:29:56;;;;;;;76.68;26.20;;;;;;;6.75;56.10;99970.47;4995546;28;96767;-72
2020/12/11 05:32:37;;;;;;;74.72;25.80;;;;;;;6.74;56.15;99973.91;5008149;28;96980;-72
2020/12/11 05:35:06;;;;;;;81.88;24.42;;;;;;;6.76;56.16;99966.16;5000805;28;97817;-72
2020/12/11 05:37:46;;;;;;;83.47;27.13;;;;;;;6.74;55.81;99967.78;5006981;28;99308;-72
2020/12/11 05:40:18;;;;;;;75.32;25.52;;;;;;;6.77;55.98;99966.22;4998080;28;97316;-72
2020/12/11 05:43:08;;;;;;;77.68;25.10;;;;;;;6.76;55.85;99966.16;5002130;28;97258;-72
2020/12/11 05:45:36;;;;;;;81.43;24.63;;;;;;;6.80;56.13;99957.69;5002246;28;98228;-72
2020/12/11 05:48:05;;;;;;;82.95;24.77;;;;;;;6.81;55.53;99964.69;5029670;22;98020;-76
2020/12/11 05:50:33;;;;;;;75.35;25.60;;;;;;;6.83;55.66;99958.75;5015029;27;97288;-76
2020/12/11 05:53:19;;;;;;;71.47;24.75;;;;;;;6.83;56.27;99968.28;5014944;27;96820;-76
2020/12/11 05:56:06;;;;;;;78.40;25.00;;;;;;;6.81;55.63;99959.47;5019436;28;96535;-76
2020/12/11 05:58:35;;;;;;;72.18;24.98;;;;;;;6.81;55.81;99949.03;5012822;27;100228;-76
2020/12/11 06:01:08;;;;;;;79.70;24.52;;;;;;;6.80;55.66;99950.75;5017486;28;96898;-76
2020/12/11 06:03:37;;;;;;;75.75;24.58;;;;;;;6.80;55.61;99957.69;5019580;28;96828;-76
2020/12/11 06:06:07;;;;;;;79.60;24.23;;;;;;;6.79;56.23;99948.94;5022116;28;97764;-76
2020/12/11 06:08:35;;;;;;;72.82;27.55;;;;;;;6.76;56.22;99946.19;4998867;28;100448;-76
2020/12/11 06:11:03;;;;;;;68.47;24.00;;;;;;;6.76;56.07;99951.41;5006966;28;97235;-75
2020/12/11 06:13:37;;;;;;;77.20;24.63;;;;;;;6.75;56.00;99944.38;5020849;28;97123;-75
2020/12/11 06:16:05;;;;;;;79.70;25.60;;;;;;;6.75;55.62;99939.16;5015136;27;96675;-75
2020/12/11 06:18:33;;;;;;;68.50;23.52;;;;;;;6.75;55.82;99938.28;5016082;28;98850;-75
2020/12/11 06:21:01;;;;;;;73.63;25.08;;;;;;;6.72;55.98;99928.56;4999109;28;97455;-75
2020/12/11 06:23:30;;;;;;;71.65;24.10;;;;;;;6.69;55.99;99941.44;5018553;27;96990;-75
2020/12/11 06:26:01;;;;;;;70.78;23.63;;;;;;;6.69;56.05;99928.41;5013829;28;100804;-76
2020/12/11 06:28:44;;;;;;;74.75;23.70;;;;;;;6.67;56.41;99929.13;5022979;27;97805;-75
2020/12/11 06:31:13;;;;;;;78.65;24.67;;;;;;;6.66;55.74;99930.81;5020038;28;97018;-76
2020/12/11 06:33:43;;;;;;;65.20;23.95;;;;;;;6.65;56.46;99929.03;5022825;27;97184;-76
2020/12/11 06:36:11;;;;;;;71.00;23.42;;;;;;;6.65;55.95;99938.56;5010782;28;98004;-76
2020/12/11 06:38:46;;;;;;;71.18;24.13;;;;;;;6.61;56.16;99932.28;5004195;28;96894;-76
2020/12/11 06:41:14;;;;;;;65.22;22.52;;;;;;;6.61;56.32;99928.78;5012246;27;97266;-76
2020/12/11 06:43:44;;;;;;;66.47;21.98;;;;;;;6.63;55.70;99934.97;5012947;28;97119;-76
2020/12/11 06:46:13;;;;;;;68.05;23.65;;;;;;;6.63;56.36;99933.28;5021076;27;96912;-76
2020/12/11 06:49:12;;;;;;;75.65;23.95;;;;;;;6.60;56.04;99932.22;5016538;28;96938;-76
2020/12/11 06:52:09;;;;;;;60.97;23.13;;;;;;;6.58;56.16;99928.63;4922738;28;97476;-76
2020/12/11 06:54:53;;;;;;;62.03;23.83;;;;;;;6.56;56.38;99936.38;5013335;28;97230;-76
2020/12/11 06:57:43;;;;;;;70.05;23.00;;;;;;;6.61;56.09;99942.72;5021799;28;96970;-76
2020/12/11 07:00:33;;;;;;;65.70;22.45;;;;;;;6.62;56.31;99947.16;5010557;27;97301;-76
2020/12/11 07:03:25;;;;;;;63.42;23.02;;;;;;;6.64;55.91;99939.41;5025131;28;97219;-77
2020/12/11 07:06:18;;;;;;;64.05;21.65;;;;;;;6.65;56.07;99941.19;5019490;28;97084;-76
2020/12/11 07:08:45;;;;;;;62.40;21.13;;;;;;;6.69;55.91;99948.38;5031112;27;97364;-76
2020/12/11 07:11:14;;;;;;;61.60;21.17;;;;;;;6.69;55.64;99945.75;5013258;28;97767;-76
2020/12/11 07:13:49;;;;;;;66.93;22.63;;;;;;;6.67;55.81;99943.06;5022868;28;97575;-77
2020/12/11 07:16:18;;;;;;;60.28;20.77;;;;;;;6.68;56.23;99938.75;5014025;28;97326;-76
2020/12/11 07:18:46;;;;;;;71.43;23.20;;;;;;;6.68;55.97;99947.47;5011036;27;99364;-77
2020/12/11 07:21:14;;;;;;;58.30;22.33;;;;;;;6.68;55.69;99946.59;5001656;28;98509;-76
2020/12/11 07:23:42;;;;;;;59.92;21.35;;;;;;;6.70;56.31;99937.09;5022409;28;96915;-76
2020/12/11 07:26:11;;;;;;;58.63;21.38;;;;;;;6.72;56.04;99946.81;5016694;27;96855;-77
2020/12/11 07:28:39;;;;;;;58.40;21.40;;;;;;;6.72;55.89;99944.22;4994618;28;99913;-76
2020/12/11 07:31:11;;;;;;;68.22;21.95;;;;;;;6.73;56.28;99938.16;5017238;28;96673;-76
2020/12/11 07:33:40;;;;;;;62.75;22.30;;;;;;;6.74;56.27;99937.38;5023639;28;96729;-76
2020/12/11 07:36:08;;;;;;;67.63;23.75;;;;;;;6.74;55.82;99939.97;5025745;28;97327;-76
2020/12/11 07:38:35;;;;;;;58.35;21.63;;;;;;;6.76;55.82;99937.44;4994639;27;99620;-76
2020/12/11 07:41:06;;;;;;;56.80;21.15;;;;;;;6.74;55.94;99932.16;5007794;28;98854;-76
2020/12/11 07:43:34;;;;;;;62.25;20.95;;;;;;;6.76;56.03;99929.63;5018609;27;98398;-76
2020/12/11 07:46:04;;;;;;;63.70;21.52;;;;;;;6.77;55.72;99931.44;5009679;28;97156;-76
2020/12/11 07:48:32;;;;;;;54.35;21.45;;;;;;;6.75;56.25;99933.06;5017578;28;97717;-76
2020/12/11 07:51:01;;;;;;;58.78;21.42;;;;;;;6.75;56.21;99922.63;5010366;28;97407;-77
2020/12/11 07:53:29;;;;;;;63.42;20.67;;;;;;;6.73;56.27;99919.03;5018374;27;97224;-75
2020/12/11 07:55:57;;;;;;;59.00;23.65;;;;;;;6.71;55.78;99912.81;5003211;28;97162;-75
2020/12/11 07:58:25;;;;;;;61.70;21.02;;;;;;;6.71;56.21;99915.44;5014224;27;97865;-76
2020/12/11 08:00:53;;;;;;;58.28;22.05;;;;;;;6.72;56.32;99909.38;5015604;28;97205;-75
2020/12/11 08:03:20;;;;;;;56.20;21.83;;;;;;;6.70;56.14;99906.69;5016228;27;96898;-75
2020/12/11 08:05:47;;;;;;;54.83;20.05;;;;;;;6.71;56.27;99900.69;5015909;28;97384;-76
2020/12/11 08:08:16;;;;;;;60.33;21.27;;;;;;;6.69;55.78;99904.91;5018906;27;98027;-75
2020/12/11 08:10:44;;;;;;;56.08;20.13;;;;;;;6.68;56.19;99899.63;5010812;27;97496;-75
2020/12/11 08:13:16;;;;;;;58.53;22.05;;;;;;;6.68;56.10;99894.41;5017602;28;96892;-75
2020/12/11 08:16:09;;;;;;;64.05;21.77;;;;;;;6.65;55.91;99889.00;5015328;28;96860;-75
2020/12/11 08:18:38;;;;;;;52.70;19.60;;;;;;;6.66;55.79;99886.47;5015054;28;98784;-76
2020/12/11 08:21:06;;;;;;;69.53;21.98;;;;;;;6.65;56.06;99881.16;5012400;27;97862;-76
2020/12/11 08:23:43;;;;;;;61.35;22.30;;;;;;;6.61;56.15;99876.59;5003413;28;97839;-76
2020/12/11 08:26:16;;;;;;;65.72;21.30;;;;;;;6.62;55.87;99873.19;5011168;27;96761;-76
2020/12/11 08:28:45;;;;;;;53.65;20.98;;;;;;;6.62;55.69;99867.97;5016476;28;99698;-76
2020/12/11 08:31:20;;;;;;;65.30;21.75;;;;;;;6.59;56.44;99863.47;5021630;28;99108;-75
2020/12/11 08:34:01;;;;;;;55.17;19.80;;;;;;;6.58;56.02;99859.09;5011849;27;97321;-77
2020/12/11 08:36:30;;;;;;;56.28;21.30;;;;;;;6.57;56.14;99861.63;5037268;27;97488;-75
2020/12/11 08:39:10;;;;;;;63.28;23.00;;;;;;;6.55;56.21;99858.03;5017910;28;99035;-75
2020/12/11 08:41:41;;;;;;;61.20;21.80;;;;;;;6.57;55.67;99849.44;5003465;28;96826;-76
2020/12/11 08:44:19;;;;;;;55.92;21.33;;;;;;;6.58;56.39;99855.56;5022990;28;97317;-76
2020/12/11 08:46:58;;;;;;;58.85;20.45;;;;;;;6.60;56.25;99847.03;5018310;27;97732;-76
2020/12/11 08:49:44;;;;;;;60.30;21.88;;;;;;;6.57;56.09;99853.78;5016050;28;100732;-76
2020/12/11 08:52:12;;;;;;;69.03;21.60;;;;;;;6.57;55.66;99859.00;5015474;28;96807;-76
2020/12/11 08:54:59;;;;;;;57.63;22.10;;;;;;;6.57;56.25;99851.19;5009347;27;96872;-76
2020/12/11 08:57:49;;;;;;;58.95;21.15;;;;;;;6.58;55.83;99855.56;4999139;28;97348;-76
2020/12/11 09:00:17;;;;;;;54.95;20.33;;;;;;;6.57;55.98;99845.97;5013498;28;97562;-76
2020/12/11 09:02:45;;;;;;;60.97;22.15;;;;;;;6.58;56.35;99852.97;5017018;28;97217;-76
2020/12/11 09:05:13;;;;;;;57.85;20.90;;;;;;;6.53;55.77;99852.69;5019602;27;96885;-76
2020/12/11 09:07:40;;;;;;;57.30;20.95;;;;;;;6.48;56.11;99837.66;5008970;27;97498;-76
2020/12/11 09:10:09;;;;;;;52.13;19.85;;;;;;;6.45;56.00;99833.16;5019400;28;98060;-76
2020/12/11 09:12:36;;;;;;;54.60;20.20;;;;;;;6.46;56.74;99834.94;5001773;28;97663;-76
2020/12/11 09:15:08;;;;;;;59.88;22.02;;;;;;;6.42;55.83;99832.09;5010470;27;97349;-76
2020/12/11 09:17:37;;;;;;;58.72;21.77;;;;;;;6.40;56.25;99831.09;5015706;27;97307;-75
2020/12/11 09:20:06;;;;;;;52.53;20.52;;;;;;;6.38;56.14;99836.25;5023722;28;97342;-75
2020/12/11 09:22:53;;;;;;;51.85;19.85;;;;;;;6.43;56.36;99826.03;5012561;28;98134;-76
2020/12/11 09:25:22;;;;;;;53.13;21.20;;;;;;;6.48;56.47;99837.66;5016409;28;96819;-76
2020/12/11 09:27:50;;;;;;;52.70;20.75;;;;;;;6.52;55.99;99834.34;5015644;27;96827;-77
2020/12/11 09:30:27;;;;;;;57.30;21.67;;;;;;;6.57;56.19;99825.97;4999815;28;97564;-76
2020/12/11 09:33:01;;;;;;;56.85;21.67;;;;;;;6.60;55.86;99822.63;5022547;27;97777;-76
2020/12/11 09:35:30;;;;;;;57.67;20.90;;;;;;;6.63;56.26;99830.63;5035089;27;97605;-76
2020/12/11 09:37:58;;;;;;;52.83;20.67;;;;;;;6.66;55.87;99823.84;5019291;27;96813;-76
2020/12/11 09:40:34;;;;;;;58.90;19.95;;;;;;;6.71;55.48;99819.78;5035940;27;96840;-76
2020/12/11 09:45:50;;;;;;;56.28;21.10;;;;;;;6.78;55.34;99813.16;5017718;27;96775;-76
2020/12/11 09:48:24;;;;;;;60.08;21.60;;;;;;;6.80;55.80;99798.47;5015449;28;97204;-76
2020/12/11 09:50:58;;;;;;;50.83;20.90;;;;;;;6.81;55.48;99795.94;4994622;28;98904;-76
2020/12/11 09:56:21;;;;;;;51.28;19.83;;;;;;;6.79;55.57;99788.84;5017598;27;97282;-77
2020/12/11 09:58:51;;;;;;;60.50;20.50;;;;;;;6.82;56.01;99783.81;5017878;28;97047;-77
2020/12/11 10:01:24;;;;;;;50.90;20.02;;;;;;;6.86;56.33;99785.75;5014445;28;97823;-77
2020/12/11 10:03:54;;;;;;;51.35;19.13;;;;;;;6.90;55.47;99792.91;5020887;28;97427;-77
2020/12/11 10:06:27;;;;;;;55.28;21.60;;;;;;;6.91;55.79;99782.56;5002952;28;97229;-78
2020/12/11 10:08:55;;;;;;;41.92;19.23;;;;;;;6.93;55.72;99778.28;5016829;28;97331;-77
2020/12/11 10:11:24;;;;;;;55.70;20.80;;;;;;;6.94;55.74;99781.81;5025597;28;99404;-76
2020/12/11 10:13:55;;;;;;;47.15;18.77;;;;;;;6.96;55.47;99782.78;5017854;28;98752;-76
2020/12/11 10:16:42;;;;;;;52.30;19.05;;;;;;;7.00;55.38;99771.69;5015108;28;97102;-77
2020/12/11 10:19:10;;;;;;;49.67;20.77;;;;;;;7.01;55.47;99773.47;5016684;28;97337;-76
2020/12/11 10:21:40;;;;;;;51.25;19.90;;;;;;;7.03;55.61;99777.06;5012365;28;97839;-76
2020/12/11 10:24:08;;;;;;;47.50;19.23;;;;;;;7.06;55.37;99774.63;4996568;28;96876;-76
2020/12/11 10:26:39;;;;;;;48.33;20.00;;;;;;;7.07;55.17;99766.84;5024073;28;98290;-76
2020/12/11 10:29:25;;;;;;;54.00;20.73;;;;;;;7.11;55.69;99770.50;5021552;28;96815;-76
2020/12/11 10:31:52;;;;;;;49.72;18.85;;;;;;;7.13;55.75;99771.50;5000376;28;96741;-76
2020/12/11 10:34:20;;;;;;;59.67;19.80;;;;;;;7.15;55.61;99757.66;5018712;27;97150;-76
2020/12/11 10:36:49;;;;;;;47.60;18.80;;;;;;;7.16;55.51;99767.31;5020571;27;97107;-76
2020/12/11 10:39:35;;;;;;;45.22;18.48;;;;;;;7.19;55.47;99758.72;4999531;28;97254;-76
2020/12/11 10:42:05;;;;;;;54.80;20.38;;;;;;;7.22;55.27;99757.16;5014803;28;97237;-76
2020/12/11 10:44:33;;;;;;;50.17;19.88;;;;;;;7.26;55.43;99753.00;5019558;28;97158;-76
2020/12/11 10:47:01;;;;;;;48.65;19.25;;;;;;;7.27;55.58;99751.25;5021569;27;96790;-76
2020/12/11 10:49:29;;;;;;;53.53;20.45;;;;;;;7.27;55.15;99749.56;5024217;28;97121;-77
2020/12/11 10:51:56;;;;;;;49.05;19.85;;;;;;;7.30;55.22;99741.00;5015919;28;97395;-76
2020/12/11 10:54:27;;;;;;;52.47;19.70;;;;;;;7.33;55.47;99734.19;5020627;27;97290;-76
2020/12/11 10:56:55;;;;;;;45.78;18.55;;;;;;;7.33;55.35;99723.75;4999891;28;97133;-77
2020/12/11 10:59:25;;;;;;;45.65;19.55;;;;;;;7.35;55.29;99721.22;5000845;28;96870;-76
2020/12/11 11:01:53;;;;;;;57.90;27.77;;;;;;;7.54;55.23;99716.03;5018024;28;99449;-77
2020/12/11 11:04:21;;;;;;;46.03;21.27;;;;;;;7.45;55.36;99716.50;5014425;28;96991;-77
2020/12/11 11:06:52;;;;;;;47.55;22.00;;;;;;;7.46;55.32;99705.25;5016067;27;97714;-76
2020/12/11 11:09:33;;;;;;;49.50;22.35;;;;;;;7.45;55.39;99703.44;5016363;28;96808;-76
2020/12/11 11:20:41;;;;;;;45.95;19.83;;;;;;;7.52;55.08;99695.06;5019803;28;97372;-77
2020/12/11 11:23:16;;;;;;;50.42;21.52;;;;;;;7.52;55.40;99686.34;5003526;28;97198;-75
2020/12/11 11:28:30;;;;;;;50.45;21.48;;;;;;;7.58;54.96;99684.91;5002239;28;96885;-76
2020/12/11 11:30:59;;;;;;;51.13;20.95;;;;;;;7.62;55.21;99680.72;5016530;28;97638;-76
2020/12/11 11:33:28;;;;;;;49.08;19.50;;;;;;;7.64;55.12;99674.75;5016328;28;97214;-76
2020/12/11 11:35:56;;;;;;;50.20;21.95;;;;;;;7.64;55.31;99677.38;5015247;27;99927;-77
2020/12/11 11:38:23;;;;;;;55.38;21.75;;;;;;;7.65;54.87;99665.16;5020946;28;97629;-77
2020/12/11 11:40:52;;;;;;;53.33;21.77;;;;;;;7.66;55.23;99667.88;5013408;28;97255;-76
2020/12/11 11:43:24;;;;;;;48.17;20.73;;;;;;;7.71;55.10;99658.53;5018113;27;97242;-76
2020/12/11 11:45:53;;;;;;;44.58;20.02;;;;;;;7.73;54.75;99659.50;5018381;28;98349;-76
2020/12/11 11:48:22;;;;;;;48.78;21.40;;;;;;;7.77;55.02;99658.78;5021593;28;97320;-76
2020/12/11 11:50:56;;;;;;;46.05;21.42;;;;;;;7.80;55.44;99648.50;5019512;28;97142;-76
2020/12/11 11:53:43;;;;;;;51.35;21.27;;;;;;;7.80;54.91;99648.50;5023058;27;99901;-76
2020/12/11 11:56:11;;;;;;;50.60;20.88;;;;;;;7.83;54.69;99651.22;5016819;28;96796;-76